TIST/STT METAR and TAF weather

Enter ICAO airport designator
Station Type Date Time Source
TIST METAR 2020/09/20 11:53 UTC NOAA

TIST 201153Z 00000KT 10SM FEW030 29/23 A2988 RMK AO2 SLP118 T02890228 10289 20256 53018


Station Type Date Time Source
TIST Decoded METAR 2020/09/20 11:53 UTC NOAA

Charlotte Amalie St. Thomas, Cyril E. King Airport, Virgin Islands (TIST) 18-20N 064-59W
Sep 20, 2020 - 07:53 AM EDT / 2020.09.20 1153 UTC
Wind: Calm:0
Visibility: 10 mile(s):0
Sky conditions: mostly clear
Temperature: 84.0 F (28.9 C)
Dew Point: 73.0 F (22.8 C)
Relative Humidity: 69%
Pressure (altimeter): 29.88 in. Hg (1011 hPa)
Pressure tendency: 0.05 inches (1.8 hPa) higher than three hours ago
ob: TIST 201153Z 00000KT 10SM FEW030 29/23 A2988 RMK AO2 SLP118 T02890228 10289 20256 53018
cycle: 12

Station Type Date Time Source
TIST TAF 2020/09/20 12:27 UTC NOAA

TAF TIST 201121Z 2012/2112 02003KT P6SM FEW026
FM201400 19007KT P6SM FEW025
FM201700 18008KT P6SM VCSH SCT030
FM202200 14005KT P6SM FEW028

Example: see airport list